createdAt,value
2022-10-17T00:09:38.786Z,5.82
2022-10-17T00:14:41.554Z,6.05
2022-10-17T00:19:44.331Z,6.00
2022-10-17T00:24:48.441Z,6.78
2022-10-17T00:29:51.913Z,6.93
2022-10-17T00:34:54.644Z,7.00
2022-10-17T00:39:59.402Z,6.40
2022-10-17T00:45:16.344Z,6.68
2022-10-17T00:50:20.480Z,6.30
2022-10-17T00:55:29.336Z,6.40
2022-10-17T01:00:32.644Z,7.25
2022-10-17T01:05:35.841Z,7.22
2022-10-17T01:10:49.448Z,6.97
2022-10-17T01:16:00.396Z,7.45
2022-10-17T01:21:41.216Z,7.63
2022-10-17T01:27:00.168Z,7.68
2022-10-17T01:32:09.870Z,9.02
2022-10-17T01:37:20.174Z,8.27
2022-10-17T01:42:28.645Z,7.32
2022-10-17T01:47:34.922Z,8.27
2022-10-17T01:52:43.869Z,7.82
2022-10-17T01:57:51.429Z,7.43
2022-10-17T02:03:00.030Z,7.93
2022-10-17T02:08:02.849Z,7.90
2022-10-17T02:13:16.245Z,7.18
2022-10-17T02:18:48.000Z,7.85
2022-10-17T02:23:56.067Z,8.30
2022-10-17T02:29:07.649Z,7.95
2022-10-17T02:34:18.013Z,6.97
2022-10-17T02:44:27.725Z,6.68
2022-10-17T02:49:37.506Z,7.35
2022-10-17T02:54:44.135Z,8.05
2022-10-17T02:59:48.311Z,7.95
2022-10-17T03:04:52.680Z,8.68
2022-10-17T03:09:55.544Z,7.82
2022-10-17T03:14:58.762Z,7.97
2022-10-17T03:20:03.253Z,8.95
2022-10-17T03:25:06.708Z,8.57
2022-10-17T03:30:12.172Z,9.10
2022-10-17T03:35:16.917Z,9.23
2022-10-17T03:40:24.013Z,9.65
2022-10-17T03:45:26.859Z,9.18
2022-10-17T03:50:31.317Z,9.82
2022-10-17T03:55:35.480Z,10.32
2022-10-17T04:00:38.308Z,9.75
2022-10-17T04:05:42.868Z,8.00
2022-10-17T04:10:46.890Z,8.75
2022-10-17T04:15:55.717Z,8.30
2022-10-17T04:21:02.433Z,9.63
2022-10-17T04:26:08.206Z,9.25
2022-10-17T04:31:14.009Z,9.45
2022-10-17T04:36:37.861Z,9.88
2022-10-17T04:41:40.793Z,10.25
2022-10-17T04:46:43.761Z,9.68
2022-10-17T04:51:48.056Z,10.07
2022-10-17T04:56:57.497Z,9.57
2022-10-17T05:02:01.112Z,10.25
2022-10-17T05:07:05.688Z,9.05
2022-10-17T05:12:14.124Z,10.23
2022-10-17T05:17:20.496Z,9.57
2022-10-17T05:22:24.790Z,10.10
2022-10-17T05:27:28.001Z,9.45
2022-10-17T05:32:31.344Z,9.65
2022-10-17T05:37:36.174Z,9.70
2022-10-17T05:47:48.728Z,10.10
2022-10-17T05:52:56.069Z,11.48
2022-10-17T05:58:00.794Z,10.43
2022-10-17T06:03:10.951Z,9.65
2022-10-17T06:08:15.271Z,5.88
2022-10-17T06:13:19.548Z,8.00
2022-10-17T06:18:26.588Z,4.75
2022-10-17T06:23:31.420Z,6.07
2022-10-17T06:28:45.174Z,6.30
2022-10-17T06:33:48.880Z,7.68
2022-10-17T06:38:53.195Z,8.82
2022-10-17T06:44:08.381Z,7.85
2022-10-17T06:49:29.854Z,7.63
2022-10-17T06:54:52.866Z,6.70
2022-10-17T07:00:18.360Z,6.88
2022-10-17T07:05:25.929Z,5.65
2022-10-17T07:10:30.108Z,5.75
2022-10-17T07:15:33.314Z,6.78
2022-10-17T07:20:36.574Z,6.45
2022-10-17T07:25:40.773Z,7.00
2022-10-17T07:30:47.520Z,6.53
2022-10-17T07:35:53.746Z,6.22
2022-10-17T07:40:59.365Z,6.00
2022-10-17T07:46:02.951Z,6.20
2022-10-17T07:51:08.880Z,5.60
2022-10-17T07:56:13.390Z,5.18
2022-10-17T08:01:16.346Z,5.75
2022-10-17T08:06:19.419Z,5.45
2022-10-17T08:11:25.310Z,5.15
2022-10-17T08:16:28.129Z,4.85
2022-10-17T08:21:31.256Z,5.25
2022-10-17T08:26:38.027Z,5.18
2022-10-17T08:31:47.490Z,5.90
2022-10-17T08:36:51.625Z,5.32
2022-10-17T08:42:07.229Z,4.97
2022-10-17T08:47:15.825Z,5.28
2022-10-17T08:52:26.749Z,4.53
2022-10-17T08:57:31.547Z,4.78
2022-10-17T09:02:42.454Z,4.07
2022-10-17T09:07:54.536Z,4.50
2022-10-17T09:13:16.856Z,3.75
2022-10-17T09:18:24.973Z,4.40
2022-10-17T09:23:32.225Z,3.85
2022-10-17T09:28:39.173Z,3.90
2022-10-17T09:33:59.207Z,4.47
2022-10-17T09:39:05.371Z,3.78
2022-10-17T09:44:18.585Z,3.60
2022-10-17T09:49:29.316Z,2.88
2022-10-17T09:54:42.416Z,2.55
2022-10-17T09:59:57.894Z,2.63
2022-10-17T10:05:04.654Z,2.75
2022-10-17T10:10:23.904Z,2.80
2022-10-17T10:15:37.719Z,3.03
2022-10-17T10:20:41.687Z,3.10
2022-10-17T10:25:54.547Z,2.70
2022-10-17T10:31:01.367Z,2.50
2022-10-17T10:36:07.813Z,2.90
2022-10-17T10:41:12.328Z,2.50
2022-10-17T10:46:21.424Z,3.00
2022-10-17T10:51:30.327Z,2.33
2022-10-17T10:56:38.774Z,2.35
2022-10-17T11:01:49.862Z,2.60
2022-10-17T11:06:59.222Z,2.27
2022-10-17T11:12:07.959Z,2.90
2022-10-17T11:17:19.724Z,2.20
2022-10-17T11:22:29.276Z,2.95
2022-10-17T11:27:32.869Z,3.35
2022-10-17T11:32:43.418Z,2.92
2022-10-17T11:37:51.131Z,3.25
2022-10-17T11:43:00.889Z,3.88
2022-10-17T11:48:13.199Z,3.55
2022-10-17T11:53:18.192Z,3.30
2022-10-17T11:58:36.669Z,3.70
2022-10-17T12:04:12.161Z,3.83
2022-10-17T12:09:23.998Z,3.70
2022-10-17T12:14:44.014Z,3.33
2022-10-17T12:19:48.271Z,3.00
2022-10-17T12:24:57.729Z,3.35
2022-10-17T12:30:02.028Z,3.70
2022-10-17T12:35:06.813Z,3.50
2022-10-17T12:40:48.460Z,3.47
2022-10-17T12:45:53.684Z,4.20
2022-10-17T12:51:35.261Z,4.97
2022-10-17T12:56:36.421Z,4.50
2022-10-17T13:01:40.907Z,4.60
2022-10-17T13:06:48.654Z,3.83
2022-10-17T13:11:52.381Z,3.88
2022-10-17T13:16:57.457Z,4.43
2022-10-17T13:22:07.063Z,4.32
2022-10-17T13:27:24.537Z,3.83
2022-10-17T13:32:37.718Z,4.80
2022-10-17T13:37:43.483Z,3.85
2022-10-17T13:42:47.033Z,3.55
2022-10-17T13:47:49.961Z,3.85
2022-10-17T13:53:19.489Z,3.42
2022-10-17T13:58:22.462Z,3.70
2022-10-17T14:03:32.538Z,5.20
2022-10-17T14:08:55.244Z,3.78
2022-10-17T14:13:59.187Z,3.85
2022-10-17T14:19:02.066Z,3.28
2022-10-17T14:24:27.330Z,3.72
2022-10-17T14:29:31.896Z,4.05
2022-10-17T14:34:36.770Z,3.83
2022-10-17T14:39:40.994Z,4.10
2022-10-17T14:44:43.828Z,4.07
2022-10-17T14:49:50.857Z,4.07
2022-10-17T14:54:55.303Z,3.80
2022-10-17T14:59:58.159Z,4.05
2022-10-17T15:05:00.880Z,4.53
2022-10-17T15:10:06.072Z,4.05
2022-10-17T15:15:09.510Z,4.47
2022-10-17T15:20:15.811Z,4.70
2022-10-17T15:25:19.985Z,4.60
2022-10-17T15:30:26.341Z,4.57
2022-10-17T15:35:30.016Z,4.60
2022-10-17T15:40:34.256Z,3.85
2022-10-17T15:45:37.773Z,4.35
2022-10-17T15:50:40.512Z,3.70
2022-10-17T15:55:44.695Z,4.40
2022-10-17T16:00:48.567Z,4.80
2022-10-17T16:05:51.348Z,5.18
2022-10-17T16:10:55.616Z,4.18
2022-10-17T16:15:58.478Z,5.07
2022-10-17T16:21:01.233Z,4.47
2022-10-17T16:26:05.423Z,4.10
2022-10-17T16:31:19.209Z,4.60
2022-10-17T16:36:22.235Z,4.50
2022-10-17T16:41:28.631Z,6.75
2022-10-17T16:46:32.635Z,5.40
2022-10-17T16:51:36.653Z,6.25
2022-10-17T16:56:42.088Z,6.53
2022-10-17T17:01:44.843Z,7.22
2022-10-17T17:06:47.542Z,8.98
2022-10-17T17:11:51.685Z,8.40
2022-10-17T17:16:54.528Z,6.93
2022-10-17T17:21:57.324Z,8.18
2022-10-17T17:27:01.452Z,8.63
2022-10-17T17:32:04.252Z,8.40
2022-10-17T17:37:07.115Z,8.82
2022-10-17T17:42:11.253Z,9.10
2022-10-17T17:47:14.370Z,8.52
2022-10-17T17:52:17.118Z,9.88
2022-10-17T17:57:21.308Z,10.00
2022-10-17T18:02:24.061Z,10.88
2022-10-17T18:07:27.219Z,9.88
2022-10-17T18:12:31.815Z,11.18
2022-10-17T18:17:35.483Z,10.52
2022-10-17T18:22:38.272Z,11.70
2022-10-17T18:27:42.583Z,9.88
2022-10-17T18:32:45.365Z,10.13
2022-10-17T18:37:49.846Z,10.65
2022-10-17T18:42:54.045Z,11.40
2022-10-17T18:47:56.837Z,10.48
2022-10-17T18:52:59.972Z,12.65
2022-10-17T18:58:04.116Z,11.43
2022-10-17T19:03:07.651Z,11.27
2022-10-17T19:08:10.430Z,11.55
2022-10-17T19:13:19.217Z,11.50
2022-10-17T19:18:23.562Z,11.50
2022-10-17T19:23:26.316Z,11.60
2022-10-17T19:28:30.698Z,12.52
2022-10-17T19:33:35.369Z,11.70
2022-10-17T19:38:38.336Z,13.20
2022-10-17T19:43:44.508Z,13.95
2022-10-17T19:48:48.984Z,14.13
2022-10-17T19:53:52.564Z,15.43
2022-10-17T19:58:57.233Z,15.85
2022-10-17T20:04:00.007Z,15.73
2022-10-17T20:09:02.832Z,15.00
2022-10-17T20:14:07.349Z,16.88
2022-10-17T20:19:13.546Z,16.80
2022-10-17T20:24:17.809Z,15.80
2022-10-17T20:29:23.967Z,14.55
2022-10-17T20:34:26.736Z,14.85
2022-10-17T20:39:30.388Z,17.83
2022-10-17T20:44:34.618Z,16.45
2022-10-17T20:49:37.463Z,17.33
2022-10-17T20:54:40.377Z,18.80
2022-10-17T20:59:45.605Z,19.15
2022-10-17T21:04:49.854Z,18.98
2022-10-17T21:09:52.648Z,19.10
2022-10-17T21:14:56.828Z,18.20
2022-10-17T21:19:59.635Z,19.92
2022-10-17T21:25:02.570Z,18.38
2022-10-17T21:35:15.856Z,18.38
2022-10-17T21:40:18.698Z,16.58
2022-10-17T21:45:25.761Z,18.10
2022-10-17T21:50:29.313Z,18.20
2022-10-17T21:55:32.043Z,19.75
2022-10-17T22:00:36.181Z,18.60
2022-10-17T22:05:38.920Z,18.92
2022-10-17T22:10:41.977Z,20.95
2022-10-17T22:15:46.101Z,24.27
2022-10-17T22:20:48.882Z,23.73
2022-10-17T22:25:54.882Z,22.73
2022-10-17T22:30:59.288Z,22.02
2022-10-17T22:36:02.543Z,23.70
2022-10-17T22:41:05.992Z,24.60
2022-10-17T22:46:13.445Z,24.05
2022-10-17T22:51:16.353Z,26.92
2022-10-17T22:56:21.467Z,26.80
2022-10-17T23:01:26.628Z,25.67
2022-10-17T23:06:29.506Z,27.77
2022-10-17T23:11:32.310Z,29.35
2022-10-17T23:16:36.409Z,27.77
2022-10-17T23:21:39.148Z,26.75
2022-10-17T23:26:41.904Z,28.45
2022-10-17T23:31:46.115Z,29.08
2022-10-17T23:36:49.201Z,29.08
2022-10-17T23:41:51.965Z,28.60
2022-10-17T23:46:56.092Z,27.30
2022-10-17T23:51:58.861Z,28.83
2022-10-17T23:57:01.691Z,27.92
